createdAt,value
2024-01-11T00:02:06.018Z,195.93
2024-01-11T00:04:42.039Z,200.50
2024-01-11T00:07:20.845Z,183.20
2024-01-11T00:09:55.088Z,197.93
2024-01-11T00:12:30.352Z,200.82
2024-01-11T00:15:06.261Z,182.35
2024-01-11T00:17:41.586Z,179.35
2024-01-11T00:20:17.379Z,209.27
2024-01-11T00:22:55.637Z,188.15
2024-01-11T00:25:31.568Z,192.30
2024-01-11T00:28:07.476Z,184.85
2024-01-11T00:33:21.512Z,178.20
2024-01-11T00:35:57.662Z,177.37
2024-01-11T00:38:35.120Z,189.35
2024-01-11T00:41:10.717Z,201.80
2024-01-11T00:43:45.771Z,194.90
2024-01-11T00:46:20.849Z,189.40
2024-01-11T00:48:57.031Z,192.07
2024-01-11T00:51:32.421Z,190.45
2024-01-11T00:54:10.664Z,209.40
2024-01-11T00:56:46.047Z,208.95
2024-01-11T00:59:21.798Z,214.77
2024-01-11T01:01:56.734Z,262.30
2024-01-11T01:04:32.014Z,251.80
2024-01-11T01:07:07.654Z,242.73
2024-01-11T01:09:45.971Z,216.00
2024-01-11T01:12:21.281Z,230.73
2024-01-11T01:14:56.950Z,164.30
2024-01-11T01:20:10.504Z,184.00
2024-01-11T01:22:44.994Z,188.00
2024-01-11T01:25:25.648Z,204.00
2024-01-11T01:28:02.315Z,182.35
2024-01-11T01:30:40.184Z,194.75
2024-01-11T01:33:15.993Z,174.80
2024-01-11T01:38:27.269Z,198.07
2024-01-11T01:41:06.250Z,196.15
2024-01-11T01:43:42.272Z,183.75
2024-01-11T01:51:22.257Z,202.30
2024-01-11T01:53:59.014Z,189.40
2024-01-11T01:56:38.147Z,188.38
2024-01-11T01:59:14.571Z,179.75
2024-01-11T02:01:53.298Z,204.65
2024-01-11T02:04:29.395Z,199.85
2024-01-11T02:07:05.594Z,195.55
2024-01-11T02:09:40.846Z,185.53
2024-01-11T02:12:18.979Z,181.10
2024-01-11T02:14:54.992Z,179.15
2024-01-11T02:17:30.554Z,170.77
2024-01-11T02:20:05.817Z,178.43
2024-01-11T02:22:41.035Z,181.75
2024-01-11T02:25:19.582Z,190.27
2024-01-11T02:27:54.717Z,175.57
2024-01-11T02:30:29.378Z,175.60
2024-01-11T02:33:05.332Z,188.23
2024-01-11T02:35:46.377Z,159.85
2024-01-11T02:38:20.227Z,182.13
2024-01-11T02:40:58.044Z,220.70
2024-01-11T02:43:33.756Z,200.38
2024-01-11T02:46:09.071Z,206.02
2024-01-11T02:48:44.385Z,202.65
2024-01-11T02:51:20.217Z,197.63
2024-01-11T02:56:35.102Z,189.73
2024-01-11T02:59:11.311Z,201.68
2024-01-11T03:01:44.560Z,200.75
2024-01-11T03:04:21.080Z,190.18
2024-01-11T03:06:56.345Z,197.05
2024-01-11T03:09:34.321Z,175.87
2024-01-11T03:12:13.859Z,202.35
2024-01-11T03:14:48.241Z,178.90
2024-01-11T03:17:24.427Z,181.88
2024-01-11T03:20:01.239Z,206.20
2024-01-11T03:22:36.842Z,196.05
2024-01-11T03:25:14.498Z,189.32
2024-01-11T03:27:53.333Z,177.48
2024-01-11T03:30:28.444Z,176.00
2024-01-11T03:33:04.477Z,188.15
2024-01-11T03:35:40.189Z,167.00
2024-01-11T03:38:16.830Z,145.33
2024-01-11T03:40:51.799Z,161.90
2024-01-11T03:43:29.998Z,166.47
2024-01-11T03:46:05.194Z,161.57
2024-01-11T03:48:41.435Z,156.40
2024-01-11T03:51:16.894Z,178.67
2024-01-11T03:53:52.949Z,178.77
2024-01-11T03:56:28.675Z,181.77
2024-01-11T03:59:07.773Z,161.73
2024-01-11T04:01:44.208Z,168.48
2024-01-11T04:04:20.566Z,178.90
2024-01-11T04:06:58.823Z,171.10
2024-01-11T04:09:35.875Z,171.88
2024-01-11T04:12:11.828Z,150.35
2024-01-11T04:14:53.329Z,183.68
2024-01-11T04:17:27.461Z,149.82
2024-01-11T04:20:06.008Z,166.35
2024-01-11T04:22:42.288Z,166.35
2024-01-11T04:25:17.410Z,166.13
2024-01-11T04:27:52.865Z,165.68
2024-01-11T04:30:38.655Z,174.60
2024-01-11T04:33:14.316Z,147.45
2024-01-11T04:35:52.031Z,159.63
2024-01-11T04:38:27.536Z,144.40
2024-01-11T04:41:05.373Z,158.90
2024-01-11T04:43:43.412Z,162.48
2024-01-11T04:46:21.701Z,154.60
2024-01-11T04:48:57.114Z,174.00
2024-01-11T04:51:35.518Z,162.15
2024-01-11T04:54:11.760Z,163.40
2024-01-11T04:56:47.997Z,165.67
2024-01-11T04:59:25.591Z,146.95
2024-01-11T05:02:05.825Z,153.23
2024-01-11T05:04:41.197Z,147.43
2024-01-11T05:07:14.762Z,154.27
2024-01-11T05:09:51.433Z,151.77
2024-01-11T05:12:27.505Z,151.00
2024-01-11T05:15:02.629Z,160.73
2024-01-11T05:17:41.031Z,126.00
2024-01-11T05:20:17.102Z,141.40
2024-01-11T05:22:52.894Z,156.40
2024-01-11T05:25:27.694Z,144.75
2024-01-11T05:28:02.889Z,153.32
2024-01-11T05:30:39.584Z,154.35
2024-01-11T05:33:19.614Z,138.35
2024-01-11T05:35:55.293Z,137.95
2024-01-11T05:38:27.387Z,138.20
2024-01-11T05:41:03.456Z,131.65
2024-01-11T05:43:38.141Z,114.87
2024-01-11T05:46:16.956Z,132.18
2024-01-11T05:49:07.340Z,137.98
2024-01-11T05:51:42.333Z,122.70
2024-01-11T05:54:17.604Z,118.47
2024-01-11T05:56:57.269Z,115.07
2024-01-11T05:59:31.340Z,108.75
2024-01-11T06:02:06.204Z,105.10
2024-01-11T06:04:46.528Z,107.03
2024-01-11T06:07:24.076Z,104.73
2024-01-11T06:09:59.795Z,117.53
2024-01-11T06:12:34.731Z,99.95
2024-01-11T06:15:13.141Z,108.25
2024-01-11T06:17:50.366Z,108.18
2024-01-11T06:20:31.351Z,102.65
2024-01-11T06:23:09.041Z,84.17
2024-01-11T06:25:45.443Z,94.30
2024-01-11T06:28:19.903Z,105.57
2024-01-11T06:30:55.102Z,87.20
2024-01-11T06:33:29.830Z,86.65
2024-01-11T06:36:07.545Z,94.53
2024-01-11T06:38:42.768Z,89.85
2024-01-11T06:41:16.952Z,79.72
2024-01-11T06:43:52.804Z,95.78
2024-01-11T06:46:27.074Z,80.95
2024-01-11T06:49:01.431Z,91.20
2024-01-11T06:51:40.443Z,93.15
2024-01-11T06:54:14.915Z,88.28
2024-01-11T06:56:50.441Z,89.05
2024-01-11T06:59:26.948Z,95.87
2024-01-11T07:02:02.291Z,92.20
2024-01-11T07:04:37.609Z,87.40
2024-01-11T07:07:15.333Z,69.65
2024-01-11T07:09:49.961Z,71.95
2024-01-11T07:12:24.980Z,78.53
2024-01-11T07:15:00.814Z,87.18
2024-01-11T07:20:11.911Z,65.47
2024-01-11T07:22:50.506Z,74.50
2024-01-11T07:25:27.739Z,70.20
2024-01-11T07:28:00.428Z,66.43
2024-01-11T07:30:35.092Z,80.88
2024-01-11T07:33:11.185Z,76.05
2024-01-11T07:35:47.404Z,70.65
2024-01-11T07:38:24.902Z,68.93
2024-01-11T07:41:00.007Z,79.63
2024-01-11T07:43:45.616Z,73.05
2024-01-11T07:46:38.817Z,65.78
2024-01-11T07:49:17.478Z,75.97
2024-01-11T07:51:52.364Z,66.40
2024-01-11T07:54:29.911Z,81.25
2024-01-11T07:57:05.513Z,68.43
2024-01-11T07:59:40.853Z,62.95
2024-01-11T08:02:16.649Z,68.63
2024-01-11T08:04:51.785Z,73.85
2024-01-11T08:07:28.990Z,66.73
2024-01-11T08:10:08.057Z,60.45
2024-01-11T08:12:44.048Z,59.03
2024-01-11T08:17:55.406Z,60.22
2024-01-11T08:20:30.420Z,53.88
2024-01-11T08:23:05.416Z,63.25
2024-01-11T08:25:43.033Z,59.70
2024-01-11T08:28:16.549Z,67.30
2024-01-11T08:30:51.256Z,62.55
2024-01-11T08:33:26.855Z,56.35
2024-01-11T08:36:05.313Z,59.53
2024-01-11T08:38:40.546Z,49.95
2024-01-11T08:41:20.799Z,56.00
2024-01-11T08:43:55.824Z,61.90
2024-01-11T08:46:33.066Z,47.63
2024-01-11T08:49:09.052Z,53.60
2024-01-11T08:51:44.415Z,50.25
2024-01-11T08:54:22.375Z,48.08
2024-01-11T08:57:00.262Z,48.20
2024-01-11T08:59:35.941Z,51.50
2024-01-11T09:02:16.668Z,44.60
2024-01-11T09:04:54.888Z,46.55
2024-01-11T09:07:30.439Z,50.53
2024-01-11T09:10:05.449Z,42.13
2024-01-11T09:12:43.455Z,45.05
2024-01-11T09:15:19.612Z,42.50
2024-01-11T09:17:54.565Z,44.80
2024-01-11T09:20:30.026Z,45.00
2024-01-11T09:23:05.404Z,44.53
2024-01-11T09:25:40.453Z,38.95
2024-01-11T09:28:18.245Z,46.85
2024-01-11T09:30:53.323Z,40.42
2024-01-11T09:33:28.402Z,55.80
2024-01-11T09:36:04.197Z,46.77
2024-01-11T09:38:39.874Z,49.28
2024-01-11T09:41:19.603Z,49.70
2024-01-11T09:43:59.389Z,49.58
2024-01-11T09:46:37.057Z,44.92
2024-01-11T09:49:12.501Z,48.00
2024-01-11T09:51:47.574Z,37.22
2024-01-11T09:54:23.318Z,44.58
2024-01-11T09:56:59.027Z,44.15
2024-01-11T09:59:38.150Z,45.35
2024-01-11T10:02:16.953Z,43.28
2024-01-11T10:04:53.944Z,37.97
2024-01-11T10:07:30.401Z,38.97
2024-01-11T10:10:08.681Z,43.13
2024-01-11T10:12:49.915Z,40.78
2024-01-11T10:15:33.797Z,36.90
2024-01-11T10:18:12.205Z,37.57
2024-01-11T10:20:48.505Z,45.53
2024-01-11T10:23:30.521Z,45.92
2024-01-11T10:26:12.704Z,36.50
2024-01-11T10:28:49.488Z,37.22
2024-01-11T10:31:30.310Z,33.80
2024-01-11T10:34:11.826Z,40.47
2024-01-11T10:36:46.835Z,33.72
2024-01-11T10:39:22.443Z,38.40
2024-01-11T10:42:04.282Z,35.28
2024-01-11T10:44:39.809Z,43.95
2024-01-11T10:47:20.518Z,34.70
2024-01-11T10:49:54.225Z,40.03
2024-01-11T10:52:33.505Z,43.90
2024-01-11T10:55:10.607Z,42.60
2024-01-11T10:57:50.446Z,33.05
2024-01-11T11:00:25.456Z,37.38
2024-01-11T11:03:05.996Z,38.15
2024-01-11T11:05:43.611Z,43.15
2024-01-11T11:08:19.374Z,41.38
2024-01-11T11:11:04.490Z,38.90
2024-01-11T11:13:43.509Z,45.65
2024-01-11T11:16:21.980Z,37.47
2024-01-11T11:19:01.939Z,42.20
2024-01-11T11:21:43.030Z,40.07
2024-01-11T11:24:20.509Z,45.08
2024-01-11T11:27:01.675Z,40.30
2024-01-11T11:29:39.865Z,40.58
2024-01-11T11:32:18.177Z,42.17
2024-01-11T11:34:58.310Z,41.38
2024-01-11T11:37:34.313Z,34.00
2024-01-11T11:42:46.844Z,36.23
2024-01-11T11:45:28.275Z,37.42
2024-01-11T11:48:03.409Z,34.45
2024-01-11T11:50:43.495Z,36.65
2024-01-11T11:53:18.064Z,35.92
2024-01-11T11:55:53.867Z,36.72
2024-01-11T11:58:29.848Z,36.13
2024-01-11T12:03:51.033Z,37.20
2024-01-11T12:06:31.997Z,35.60
2024-01-11T12:09:17.852Z,38.08
2024-01-11T12:12:02.751Z,34.70
2024-01-11T12:14:48.768Z,38.25
2024-01-11T12:17:28.408Z,35.95
2024-01-11T12:20:05.491Z,42.17
2024-01-11T12:22:45.654Z,32.97
2024-01-11T12:25:26.181Z,40.97
2024-01-11T12:28:02.777Z,37.00
2024-01-11T12:30:41.101Z,36.40
2024-01-11T12:33:18.211Z,43.28
2024-01-11T12:35:57.040Z,38.77
2024-01-11T12:38:37.084Z,38.78
2024-01-11T12:41:25.501Z,39.83
2024-01-11T12:43:58.767Z,35.38
2024-01-11T12:46:38.576Z,39.20
2024-01-11T12:49:15.005Z,41.78
2024-01-11T12:51:51.258Z,38.33
2024-01-11T12:54:34.605Z,42.35
2024-01-11T12:57:09.724Z,41.03
2024-01-11T12:59:46.684Z,41.50
2024-01-11T13:02:27.875Z,41.17
2024-01-11T13:05:05.239Z,42.03
2024-01-11T13:07:44.967Z,45.70
2024-01-11T13:10:24.286Z,43.35
2024-01-11T13:13:09.145Z,31.30
2024-01-11T13:15:50.326Z,39.15
2024-01-11T13:18:28.772Z,36.47
2024-01-11T13:21:08.417Z,39.80
2024-01-11T13:23:46.671Z,37.20
2024-01-11T13:26:25.135Z,32.95
2024-01-11T13:29:02.497Z,34.80
2024-01-11T13:31:43.449Z,29.73
2024-01-11T13:34:18.653Z,37.92
2024-01-11T13:36:56.114Z,42.10
2024-01-11T13:39:33.161Z,36.27
2024-01-11T13:42:13.854Z,42.15
2024-01-11T13:44:52.851Z,38.00
2024-01-11T13:47:28.075Z,41.40
2024-01-11T13:50:04.988Z,40.38
2024-01-11T13:52:42.574Z,37.95
2024-01-11T13:55:19.434Z,33.60
2024-01-11T13:57:59.942Z,37.05
2024-01-11T14:00:37.991Z,36.05
2024-01-11T14:03:15.450Z,39.08
2024-01-11T14:05:51.133Z,41.15
2024-01-11T14:08:27.750Z,35.45
2024-01-11T14:11:07.146Z,41.33
2024-01-11T14:13:53.257Z,40.97
2024-01-11T14:17:02.269Z,42.27
2024-01-11T14:19:46.043Z,33.45
2024-01-11T14:22:24.765Z,27.67
2024-01-11T14:24:59.908Z,42.78
2024-01-11T14:27:36.577Z,36.95
2024-01-11T14:30:19.351Z,37.08
2024-01-11T14:32:58.537Z,31.90
2024-01-11T14:35:37.264Z,26.88
2024-01-11T14:38:12.696Z,22.53
2024-01-11T14:40:48.668Z,23.45
2024-01-11T14:43:25.429Z,19.35
2024-01-11T14:46:12.165Z,21.00
2024-01-11T14:48:51.497Z,18.90
2024-01-11T14:51:30.617Z,17.23
2024-01-11T14:54:06.472Z,24.90
2024-01-11T14:59:17.813Z,16.15
2024-01-11T15:01:56.980Z,16.67
2024-01-11T15:04:32.900Z,17.75
2024-01-11T15:07:15.262Z,18.23
2024-01-11T15:09:54.089Z,23.42
2024-01-11T15:12:28.511Z,16.73
2024-01-11T15:15:12.493Z,23.77
2024-01-11T15:17:52.346Z,22.02
2024-01-11T15:20:29.486Z,25.10
2024-01-11T15:23:08.981Z,21.48
2024-01-11T15:25:46.223Z,26.30
2024-01-11T15:28:24.018Z,23.42
2024-01-11T15:31:02.412Z,22.90
2024-01-11T15:33:44.334Z,20.50
2024-01-11T15:36:23.113Z,22.30
2024-01-11T15:39:08.209Z,20.60
2024-01-11T15:41:56.375Z,24.00
2024-01-11T15:44:31.911Z,23.77
2024-01-11T15:47:12.229Z,20.42
2024-01-11T15:49:51.699Z,25.40
2024-01-11T15:52:29.091Z,24.90
2024-01-11T15:55:07.280Z,23.70
2024-01-11T15:57:44.324Z,23.80
2024-01-11T16:00:21.421Z,24.77
2024-01-11T16:03:00.390Z,22.48
2024-01-11T16:05:41.502Z,25.13
2024-01-11T16:08:18.199Z,18.63
2024-01-11T16:10:55.340Z,17.63
2024-01-11T16:13:34.910Z,21.45
2024-01-11T16:16:11.611Z,21.83
2024-01-11T16:18:47.575Z,17.17
2024-01-11T16:21:32.469Z,19.50
2024-01-11T16:24:07.823Z,20.85
2024-01-11T16:26:44.668Z,19.35
2024-01-11T16:29:20.286Z,22.10
2024-01-11T16:31:57.262Z,21.60
2024-01-11T16:34:35.643Z,21.17
2024-01-11T16:37:07.608Z,20.60
2024-01-11T16:39:48.268Z,18.13
2024-01-11T16:42:25.982Z,20.47
2024-01-11T16:45:02.086Z,21.60
2024-01-11T16:47:46.135Z,17.45
2024-01-11T16:50:23.581Z,16.83
2024-01-11T16:53:00.689Z,20.85
2024-01-11T16:55:42.269Z,19.35
2024-01-11T16:58:21.775Z,21.30
2024-01-11T17:01:00.451Z,18.98
2024-01-11T17:03:36.483Z,19.25
2024-01-11T17:08:53.278Z,18.20
2024-01-11T17:11:33.316Z,21.83
2024-01-11T17:14:09.641Z,19.15
2024-01-11T17:16:45.389Z,16.30
2024-01-11T17:19:23.556Z,16.60
2024-01-11T17:22:05.100Z,20.52
2024-01-11T17:24:42.004Z,17.08
2024-01-11T17:27:24.415Z,17.88
2024-01-11T17:30:00.692Z,17.67
2024-01-11T17:32:36.087Z,18.40
2024-01-11T17:35:15.853Z,19.35
2024-01-11T17:38:02.777Z,24.08
2024-01-11T17:40:39.636Z,19.75
2024-01-11T17:43:21.110Z,21.70
2024-01-11T17:45:56.991Z,17.00
2024-01-11T17:48:34.829Z,22.80
2024-01-11T17:51:16.712Z,19.13
2024-01-11T17:53:54.200Z,19.27
2024-01-11T17:56:29.556Z,18.07
2024-01-11T17:59:13.418Z,21.30
2024-01-11T18:01:50.521Z,19.35
2024-01-11T18:04:28.514Z,23.35
2024-01-11T18:07:05.805Z,22.37
2024-01-11T18:09:43.055Z,23.70
2024-01-11T18:12:20.783Z,24.92
2024-01-11T18:15:00.449Z,22.02
2024-01-11T18:17:42.073Z,21.08
2024-01-11T18:20:21.573Z,16.60
2024-01-11T18:22:57.486Z,21.02
2024-01-11T18:25:34.938Z,16.70
2024-01-11T18:28:14.275Z,18.80
2024-01-11T18:30:53.799Z,20.50
2024-01-11T18:33:31.711Z,17.20
2024-01-11T18:36:10.200Z,21.52
2024-01-11T18:38:43.246Z,18.80
2024-01-11T18:41:28.091Z,23.30
2024-01-11T18:44:05.346Z,19.45
2024-01-11T18:46:45.838Z,24.85
2024-01-11T18:49:21.701Z,17.67
2024-01-11T18:51:59.023Z,19.70
2024-01-11T18:54:35.896Z,19.15
2024-01-11T18:57:16.376Z,21.83
2024-01-11T18:59:55.184Z,22.30
2024-01-11T19:02:33.605Z,24.98
2024-01-11T19:05:11.179Z,27.00
2024-01-11T19:07:50.845Z,24.77
2024-01-11T19:10:24.629Z,26.40
2024-01-11T19:13:00.408Z,26.15
2024-01-11T19:15:37.844Z,23.90
2024-01-11T19:18:22.018Z,21.23
2024-01-11T19:20:59.678Z,27.83
2024-01-11T19:23:36.433Z,26.17
2024-01-11T19:26:13.675Z,25.27
2024-01-11T19:28:50.105Z,26.15
2024-01-11T19:31:32.692Z,31.00
2024-01-11T19:34:11.195Z,25.70
2024-01-11T19:36:46.879Z,27.95
2024-01-11T19:39:22.526Z,26.00
2024-01-11T19:42:02.402Z,26.80
2024-01-11T19:44:42.885Z,23.42
2024-01-11T19:47:20.483Z,28.67
2024-01-11T19:50:00.224Z,28.25
2024-01-11T19:52:36.659Z,27.30
2024-01-11T19:55:17.368Z,26.43
2024-01-11T19:57:55.439Z,23.33
2024-01-11T20:00:30.980Z,25.53
2024-01-11T20:03:08.340Z,25.20
2024-01-11T20:05:49.162Z,30.50
2024-01-11T20:08:26.153Z,23.65
2024-01-11T20:11:04.823Z,27.55
2024-01-11T20:13:39.902Z,27.20
2024-01-11T20:16:17.811Z,27.88
2024-01-11T20:18:54.038Z,20.85
2024-01-11T20:21:35.772Z,29.15
2024-01-11T20:24:15.785Z,30.45
2024-01-11T20:26:54.536Z,26.58
2024-01-11T20:29:31.508Z,24.10
2024-01-11T20:32:07.515Z,27.52
2024-01-11T20:34:43.577Z,26.20
2024-01-11T20:37:24.885Z,26.80
2024-01-11T20:43:08.056Z,26.05
2024-01-11T20:45:45.731Z,30.10
2024-01-11T20:48:22.470Z,29.73
2024-01-11T20:50:59.248Z,26.45
2024-01-11T20:53:40.086Z,27.38
2024-01-11T20:56:16.605Z,26.73
2024-01-11T20:58:55.622Z,25.42
2024-01-11T21:01:30.869Z,28.25
2024-01-11T21:04:07.132Z,25.63
2024-01-11T21:09:21.897Z,21.90
2024-01-11T21:11:59.831Z,26.48
2024-01-11T21:14:35.525Z,26.45
2024-01-11T21:17:12.041Z,29.20
2024-01-11T21:19:50.756Z,25.25
2024-01-11T21:22:32.506Z,27.27
2024-01-11T21:25:06.838Z,25.38
2024-01-11T21:27:47.198Z,27.17
2024-01-11T21:30:24.573Z,27.00
2024-01-11T21:33:06.377Z,29.33
2024-01-11T21:35:46.836Z,26.98
2024-01-11T21:38:27.740Z,29.27
2024-01-11T21:41:05.333Z,26.45
2024-01-11T21:43:46.077Z,25.67
2024-01-11T21:46:25.736Z,24.42
2024-01-11T21:49:07.488Z,24.05
2024-01-11T21:51:48.272Z,21.50
2024-01-11T21:54:26.773Z,31.45
2024-01-11T21:57:03.050Z,23.58
2024-01-11T21:59:45.271Z,28.65
2024-01-11T22:02:27.607Z,28.25
2024-01-11T22:05:06.357Z,25.45
2024-01-11T22:07:48.809Z,24.13
2024-01-11T22:10:29.595Z,25.63
2024-01-11T22:13:10.975Z,26.27
2024-01-11T22:16:03.843Z,25.30
2024-01-11T22:18:43.151Z,24.15
2024-01-11T22:21:17.395Z,23.67
2024-01-11T22:24:23.454Z,21.05
2024-01-11T22:27:32.076Z,23.40
2024-01-11T22:30:19.095Z,23.40
2024-01-11T22:33:13.625Z,18.92
2024-01-11T22:35:50.498Z,18.90
2024-01-11T22:38:29.528Z,22.15
2024-01-11T22:41:09.319Z,20.20
2024-01-11T22:43:45.176Z,18.67
2024-01-11T22:46:23.363Z,25.85
2024-01-11T22:49:04.389Z,23.63
2024-01-11T22:51:41.218Z,20.75
2024-01-11T22:54:19.550Z,21.80
2024-01-11T22:56:58.606Z,19.48
2024-01-11T22:59:37.627Z,19.33
2024-01-11T23:02:14.201Z,20.27
2024-01-11T23:04:54.918Z,23.43
2024-01-11T23:07:33.895Z,26.05
2024-01-11T23:10:14.425Z,20.50
2024-01-11T23:12:55.204Z,24.30
2024-01-11T23:15:31.915Z,19.38
2024-01-11T23:18:07.668Z,25.40
2024-01-11T23:20:48.312Z,21.95
2024-01-11T23:23:27.787Z,22.45
2024-01-11T23:26:06.064Z,21.93
2024-01-11T23:28:49.407Z,21.88
2024-01-11T23:31:25.724Z,25.73
2024-01-11T23:34:03.665Z,22.05
2024-01-11T23:36:45.606Z,28.63
2024-01-11T23:39:29.147Z,21.48
2024-01-11T23:42:15.323Z,23.25
2024-01-11T23:44:55.520Z,26.17
2024-01-11T23:47:36.374Z,21.40
2024-01-11T23:50:17.415Z,21.75
2024-01-11T23:53:04.401Z,18.30
2024-01-11T23:55:51.896Z,24.83
2024-01-11T23:58:49.763Z,17.80
